Wild Boar Gully, Santa Catalina Island Weather observations

Data are for 10 minute period ending at time listed.
 Day   Time   Solar   Ave.   Ave.  Ave.  Vector    Max.   Stn.    Total
  of    of     Rad.   Air    Rel.  Wind   Wind     Wind   Baro.  Precip.
Year   Day            Temp.  Hum.  Speed  Dir.     Gust   Pres.         
2014   (PST)   W/m2    F      %     mph   deg.      mph    mb.     in.  
------------------------------------------------------------------------
 208    8:20  459.0    72   76.7     6    243.1    11.3    999.0   0.00  
 208    8:30  487.0    72   76.5     5    235.8     8.4    999.0   0.00  
 208    8:40  336.0    73   75.4     4    225.9     6.6    999.0   0.00  
 208    8:50  122.0    72   77.2     3    220.4     6.6    999.0   0.00  
 208    9:00  150.0    72   76.6     2    219.2     6.0    999.0   0.00  
 208    9:10  184.0    72   77.1     4    211.7     6.0    999.0   0.00  
 208    9:20  202.0    72   77.4     5    263.9     8.4    999.0   0.00  
 208    9:30  208.0    72   77.2     5    242.2     7.8    999.0   0.00  
 208    9:40  353.0    73   76.8     2    343.7     4.2    999.0   0.00  
 208    9:50  734.0    76   72.1     4    190.9    10.2    999.0   0.00  
 208   10:00  513.0    76   70.5     4    197.8     7.8    999.0   0.00  
 208   10:10  506.0    74   73.4     4    223.8     6.6    999.0   0.00  
 208   10:20  484.0    74   74.1     3    234.9     7.8    999.0   0.00  
 208   10:30  372.0    73   75.0     6    144.9     9.6    999.0   0.00  
 208   10:40  293.0    72   76.8     4    154.3     8.4    999.0   0.00  
 208   10:50  531.0    73   77.2     3    149.3     8.4    999.0   0.00  
 208   11:00  568.0    73   76.3     6    133.6     9.6    999.0   0.00  
 208   11:10  344.0    72   77.8     7    123.8    11.3    999.0   0.00  
 208   11:20  695.0    72   79.0     7    131.2    13.1    999.0   0.00  
 208   11:30  863.0    74   75.6     7    129.2    14.3    999.0   0.00  
 208   11:40  355.0    74   74.8     5    138.6     8.4    999.0   0.00  
 208   11:50  291.0    74   75.2     4    217.0     7.2    999.0   0.00  
 208   12:00  467.0    74   75.7     5    262.5    10.2    999.0   0.00  
 208   12:10  230.0    73   76.0    10    237.1    14.9    999.0   0.00  
 208   12:20  211.0    71   78.9     9    269.7    13.7    999.0   0.00  
 208   12:30  158.0    72   78.5     8    262.0    13.1    999.0   0.00  
 208   12:40  111.0    72   77.6     5    237.5     9.0    999.0   0.00  
 208   12:50   91.0    73   76.7     3    256.5     5.4    999.0   0.00  
 208   13:00   71.0    74   75.2     2    295.8     4.2    999.0   0.00  
 208   13:10   65.0    75   74.1     4    224.9     7.8    999.0   0.00  
 208   13:20   67.0    74   76.7     5    329.4     7.8    999.0   0.00  
 208   13:30   84.0    77   65.6     6     70.4    19.1    999.0   0.00  
 208   13:40  106.0    74   74.7    14     83.3    17.3    999.0   0.00  
 208   13:50  131.0    73   70.8     9     79.6    16.7    999.0   0.00  
 208   14:00  171.0    77   63.0     2    203.9     4.8    999.0   0.00  
 208   14:10  207.0    76   70.2     5    247.1     7.2    999.0   0.00  
 208   14:20  234.0    77   69.2     3    115.7     5.4    999.0   0.00  
 208   14:30  262.0    80   54.6     3     29.2     6.6    999.0   0.00  
 208   14:40  270.0    83   49.7     6     14.6    10.8    999.0   0.00  
 208   14:50  314.0    81   60.3     9     91.4    16.7    999.0   0.00  
 208   15:00  376.0    75   70.8    10     93.4    16.7    999.0   0.00  
 208   15:10  409.0    77   69.7     5    145.4     7.8    999.0   0.00  
 208   15:20  494.0    78   68.1     3    228.9     5.4    999.0   0.00  
 208   15:30  527.0    79   66.6     4    244.7     7.2    999.0   0.00  
 208   15:40  531.0    81   64.5     4    269.0     8.4    999.0   0.00  
 208   15:50  480.0    84   57.5     2    118.7     7.2    999.0   0.00  
 208   16:00  479.0    87   49.7     5    229.2    10.8    999.0   0.00  
 208   16:10  422.0    84   52.3     8     67.0    17.3    999.0   0.00  
 208   16:20  386.0    84   55.3     4    194.6     8.4    999.0   0.00  
 208   16:30  309.0    80   63.0     5    136.7     9.0    999.0   0.00  
 208   16:40  354.0    76   69.8     5    126.7     9.6    999.0   0.00  
 208   16:50  323.0    77   67.6     5    146.4     8.4    999.0   0.00  
 208   17:00  314.0    76   70.8     4    123.3     9.0    999.0   0.00  
 208   17:10  275.0    77   69.9     6    240.2     9.6    999.0   0.00  
 208   17:20  244.0    76   69.7     7    270.7    10.2    999.0   0.00  
 208   17:30  206.0    76   70.6     5    259.7     9.0    999.0   0.00  
 208   17:40  170.0    76   68.7     6    279.7    10.2    999.0   0.00  
 208   17:50  134.0    77   62.2     6    268.7     9.6    999.0   0.00  
 208   18:00  105.0    77   60.2     4    239.1     7.8    999.0   0.00  
 208   18:10   74.0    75   64.9     4    256.5     7.2    999.0   0.00  
 208   18:20   68.0    74   70.9     5    250.3     7.2    999.0   0.00  
 208   18:30   48.0    73   74.6     8    264.9    10.8    999.0   0.00  
 208   18:40   34.0    72   77.8     6    253.3    10.2    999.0   0.00  
 208   18:50   19.0    71   78.2     3    253.9     6.0    999.0   0.00  
 208   19:00    8.0    71   76.5     4    246.9     7.2    999.0   0.00  
 208   19:10    5.0    71   76.4     2    221.2     4.8    999.0   0.00  
 208   19:20    0.0    70   74.2     4    216.9     6.6    999.0   0.00  
 208   19:30    0.0    71   71.8     4    234.1     7.8    999.0   0.00  
 208   19:40    0.0    70   72.6     6    267.3    10.8    999.0   0.00  
 208   19:50    0.0    71   69.4     4    197.3     7.2    999.0   0.00  
 208   20:00    0.0    71   68.2     4    176.7     7.2    999.0   0.00  
 208   20:10    0.0    70   72.4     7    250.4     9.6    999.0   0.00  
 208   20:20    0.0    70   76.8     4    239.7     8.4    999.0   0.00  
 208   20:30    0.0    69   77.5     8    266.7    11.9    999.0   0.00  
 208   20:40    0.0    69   78.6     7    270.8    10.8    999.0   0.00  
 208   20:50    0.0    69   80.7     6    270.0    11.3    999.0   0.00  
 208   21:00    0.0    69   83.1     9    270.3    13.7    999.0   0.00  
 208   21:10    0.0    68   84.5     8    267.9    12.5    999.0   0.00  
 208   21:20    0.0    68   85.2     8    270.2    10.8    999.0   0.00  
 208   21:30    0.0    68   85.6     6    267.8     9.6    999.0   0.00  
 208   21:40    0.0    68   85.8     5    259.1     9.6    999.0   0.00  
 208   21:50    0.0    68   86.1     7    269.3    10.2    999.0   0.00  
 208   22:00    0.0    68   86.3     8    269.4    11.3    999.0   0.00  
 208   22:10    0.0    68   86.5     9    268.6    11.9    999.0   0.00  
 208   22:20    0.0    68   86.7     9    268.7    11.3    999.0   0.00  
 208   22:30    0.0    68   86.9     7    270.1    11.3    999.0   0.00  
 208   22:40    0.0    68   86.9     7    270.4     9.6    999.0   0.00  
 208   22:50    0.0    68   87.0     8    275.3    11.9    999.0   0.00  
 208   23:00    0.0    68   87.1     9    278.5    11.9    999.0   0.00  
 208   23:10    0.0    68   87.1     8    277.9    12.5    999.0   0.00  
 208   23:20    0.0    68   87.0     6    282.7     9.6    999.0   0.00  
 208   23:30    0.0    68   86.9     7    278.1    11.3    999.0   0.00  
 208   23:40    0.0    68   86.5     5    252.0     8.4    999.0   0.00  
 208   23:50    0.0    68   86.3     5    266.5     9.6    999.0   0.00  
 209    0:00    0.0    68   86.1     3    228.6     6.6    999.0   0.00  
 209    0:10    0.0    68   85.9     1    174.9     2.4    999.0   0.00  
 209    0:20    0.0    68   85.4     6     99.2     9.6    999.0   0.03  
 209    0:30    0.0    68   85.4     2    105.0     5.4    999.0   0.08  
 209    0:40    0.0    68   85.6     7    297.8    10.2    999.0   0.01  
 209    0:50    0.0    68   85.8     4    247.5     9.6    999.0   0.00  
 209    1:00    0.0    67   85.2     4     47.3     6.6    999.0   0.00  
 209    1:10    0.0    66   84.6     7     86.1    10.8    999.0   0.00  
 209    1:20    0.0    65   81.7     2     14.7     3.6    999.0   0.00  
 209    1:30    0.0    67   81.8     2    206.1     3.0    999.0   0.00  
 209    1:40    0.0    67   82.5     1     46.8     3.0    999.0   0.00  
 209    1:50    0.0    67   82.9     3    350.4     6.6    999.0   0.00  
 209    2:00    0.0    66   80.6     2    125.4     5.4    999.0   0.00  
 209    2:10    0.0    67   73.2     3     99.1     7.2    999.0   0.00  
 209    2:20    0.0    67   71.7     2     70.1     4.2    999.0   0.00  
 209    2:30    0.0    68   74.5     3    111.2     5.4    999.0   0.00  
 209    2:40    0.0    67   77.6     5     69.7     7.2    999.0   0.00  
 209    2:50    0.0    65   74.0     4     53.3     6.6    999.0   0.01  
 209    3:00    0.0    65   66.9     2    127.7     4.2    999.0   0.00  
 209    3:10    0.0    67   65.0     1    205.6     2.4    999.0   0.00  
 209    3:20    0.0    67   73.0     7      9.2    12.5    999.0   0.04  
 209    3:30    0.0    67   67.5     8     55.5    13.1    999.0   0.00  
 209    3:40    0.0    67   72.0     3    108.2     9.0    999.0   0.00  
 209    3:50    0.0    66   74.0     2     48.5     3.6    999.0   0.00  
 209    4:00    0.0    65   76.5     4     54.5     6.0    999.0   0.00  
 209    4:10    0.0    65   72.6     5     39.2    10.2    999.0   0.00  
 209    4:20    0.0    67   61.0     8     38.7    11.3    999.0   0.00  
 209    4:30    0.0    71   46.3     9     42.2    12.5    999.0   0.00  
 209    4:40    0.0    71   49.2     8     80.1    12.5    999.0   0.00  
 209    4:50    0.0    70   55.1     5     92.1     8.4    999.0   0.00  
 209    5:00    0.0    70   70.8     6    109.3     8.4    999.0   0.00  
 209    5:10    0.0    70   75.4     3    191.8     6.0    999.0   0.00  
 209    5:20    2.0    68   77.8     1    331.7     2.4    999.0   0.00  
 209    5:30    8.0    68   78.7     2    357.0     3.6    999.0   0.00  
 209    5:40   21.0    68   79.6     1     15.1     3.0    999.0   0.00  
 209    5:50   31.0    68   80.1     1      4.9     1.8    999.0   0.00  
 209    6:00   35.0    69   80.4     1    104.4     2.4    999.0   0.00  
 209    6:10   37.0    70   80.6     1     77.4     2.4    999.0   0.00  
 209    6:20   38.0    69   81.2     4    254.1     6.0    999.0   0.00  
 209    6:30   47.0    69   83.0     5    307.1     8.4    999.0   0.00  
 209    6:40   52.0    69   83.0     2    323.1     5.4    999.0   0.00  
 209    6:50   75.0    69   79.5     6     21.0    10.2    999.0   0.00  
 209    7:00   91.0    70   73.9     6     32.5    10.8    999.0   0.00  
 209    7:10  103.0    71   72.0    12     33.6    16.7    999.0   0.00  
 209    7:20   88.0    72   71.1    11     39.1    17.9    999.0   0.00  
 209    7:30   79.0    73   67.9     5     63.2    10.8    999.0   0.00  
 209    7:40   78.0    72   75.2     5    127.1     7.2    999.0   0.00  
 209    7:50  102.0    72   76.3     2     62.2     3.6    999.0   0.00  
 209    8:00  148.0    73   75.6     2    141.9     6.0    999.0   0.00  
 209    8:10  251.0    74   75.0     2    288.8     3.6    999.0   0.00  

Return to Wild Boar Gully graphs page.


Western Regional Climate Center,wrcc@dri.edu